SYT weather

Saint-Yan Airport
Saint-Yan, Bourgogne-Franche-Comté, France

Public forecast

Using degrees Celsius for public forecast. Weather courtesy of forecast.io.

Current aviation weather report (METAR) for Saint-Yan Airport

Retrieved 2020/08/06 19:30 UTC (23 seconds ago):

LFLN 061930Z AUTO 00000KT CAVOK 25/09 Q1017 NOSIG

Closest aviation forecast (TAF) to Saint-Yan Airport

Closest forecast is Clermont-Ferrand Auvergne Airport, 51.4 nm (95.3 km) SW. Retrieved 2020/08/06 15:00 UTC (5 hours ago):

TAF LFLC 061400Z 0615/0715 01005KT CAVOK BECMG 0620/0622 VRB03KT TEMPO 0700/0710 18007KT BECMG 0710/0712 04006KT